createdAt,value
2023-03-19T00:00:14.450Z,6.60
2023-03-19T00:01:14.445Z,7.90
2023-03-19T00:02:18.045Z,7.20
2023-03-19T00:03:14.568Z,7.20
2023-03-19T00:04:14.432Z,6.80
2023-03-19T00:05:14.430Z,6.20
2023-03-19T00:06:14.423Z,6.70
2023-03-19T00:07:14.424Z,8.80
2023-03-19T00:08:14.417Z,7.00
2023-03-19T00:09:14.437Z,6.70
2023-03-19T00:10:14.426Z,7.10
2023-03-19T00:11:14.408Z,7.20
2023-03-19T00:12:14.410Z,7.00
2023-03-19T00:13:14.404Z,6.70
2023-03-19T00:14:14.403Z,6.40
2023-03-19T00:15:14.786Z,6.60
2023-03-19T00:16:14.431Z,6.50
2023-03-19T00:17:14.388Z,6.90
2023-03-19T00:18:14.397Z,7.00
2023-03-19T00:19:14.380Z,8.10
2023-03-19T00:20:14.378Z,7.40
2023-03-19T00:21:14.376Z,7.30
2023-03-19T00:22:14.372Z,6.60
2023-03-19T00:23:14.365Z,6.30
2023-03-19T00:24:14.366Z,6.20
2023-03-19T00:25:14.489Z,6.80
2023-03-19T00:26:14.354Z,6.10
2023-03-19T00:27:14.353Z,6.60
2023-03-19T00:28:14.387Z,6.40
2023-03-19T00:29:14.346Z,7.10
2023-03-19T00:30:14.345Z,6.00
2023-03-19T00:31:14.420Z,6.20
2023-03-19T00:32:14.335Z,5.80
2023-03-19T00:33:14.360Z,5.50
2023-03-19T00:34:14.330Z,5.80
2023-03-19T00:35:14.319Z,5.10
2023-03-19T00:36:14.391Z,5.20
2023-03-19T00:37:14.317Z,5.00
2023-03-19T00:38:14.346Z,5.50
2023-03-19T00:39:14.312Z,5.50
2023-03-19T00:40:14.306Z,6.10
2023-03-19T00:41:14.318Z,5.40
2023-03-19T00:42:14.299Z,6.00
2023-03-19T00:43:14.290Z,6.30
2023-03-19T00:44:14.290Z,6.80
2023-03-19T00:45:14.299Z,6.20
2023-03-19T00:46:14.355Z,6.70
2023-03-19T00:47:14.283Z,6.80
2023-03-19T00:48:14.274Z,6.60
2023-03-19T00:49:14.272Z,6.00
2023-03-19T00:50:14.270Z,6.00
2023-03-19T00:51:14.618Z,5.40
2023-03-19T00:52:14.259Z,5.80
2023-03-19T00:53:14.257Z,5.50
2023-03-19T00:54:14.257Z,5.30
2023-03-19T00:55:14.247Z,5.40
2023-03-19T00:56:14.266Z,4.60
2023-03-19T00:57:14.269Z,5.30
2023-03-19T00:58:14.236Z,4.80
2023-03-19T00:59:14.238Z,5.20
2023-03-19T01:00:53.830Z,5.50
2023-03-19T01:01:53.721Z,6.40
2023-03-19T01:02:53.715Z,5.80
2023-03-19T01:03:53.723Z,6.50
2023-03-19T01:04:53.709Z,5.40
2023-03-19T01:05:53.709Z,6.10
2023-03-19T01:06:53.702Z,6.10
2023-03-19T01:07:53.694Z,5.90
2023-03-19T01:08:53.689Z,6.30
2023-03-19T01:09:53.685Z,6.30
2023-03-19T01:10:53.687Z,6.60
2023-03-19T01:11:53.679Z,5.90
2023-03-19T01:12:53.692Z,6.60
2023-03-19T01:13:53.675Z,6.90
2023-03-19T01:14:53.665Z,6.40
2023-03-19T01:15:53.666Z,6.00
2023-03-19T01:16:53.658Z,5.70
2023-03-19T01:17:53.662Z,6.60
2023-03-19T01:18:53.667Z,6.40
2023-03-19T01:19:53.645Z,8.70
2023-03-19T01:20:53.642Z,5.80
2023-03-19T01:21:53.638Z,5.40
2023-03-19T01:22:53.634Z,5.00
2023-03-19T01:23:53.632Z,4.70
2023-03-19T01:24:53.626Z,5.70
2023-03-19T01:25:53.624Z,6.00
2023-03-19T01:26:53.633Z,5.10
2023-03-19T01:27:53.614Z,5.50
2023-03-19T01:28:53.644Z,6.60
2023-03-19T01:29:53.604Z,6.20
2023-03-19T01:30:53.637Z,6.10
2023-03-19T01:31:53.600Z,5.50
2023-03-19T01:32:53.614Z,5.30
2023-03-19T01:33:53.589Z,7.00
2023-03-19T01:34:53.589Z,5.80
2023-03-19T01:35:53.599Z,5.40
2023-03-19T01:36:53.578Z,5.10
2023-03-19T01:37:53.571Z,5.30
2023-03-19T01:38:53.571Z,5.10
2023-03-19T01:39:53.569Z,5.60
2023-03-19T01:40:53.565Z,5.30
2023-03-19T01:41:53.557Z,5.30
2023-03-19T01:42:53.560Z,5.80
2023-03-19T01:43:53.552Z,5.20
2023-03-19T01:44:53.570Z,5.70
2023-03-19T01:45:53.540Z,6.60
2023-03-19T01:46:53.544Z,6.00
2023-03-19T01:47:53.530Z,6.00
2023-03-19T01:48:53.533Z,7.70
2023-03-19T01:49:53.525Z,6.20
2023-03-19T01:50:53.520Z,5.90
2023-03-19T01:51:53.520Z,5.60
2023-03-19T01:52:53.517Z,5.20
2023-03-19T01:53:53.509Z,5.60
2023-03-19T01:54:53.507Z,5.30
2023-03-19T01:55:53.496Z,5.60
2023-03-19T01:56:53.496Z,5.10
2023-03-19T01:57:53.491Z,4.90
2023-03-19T01:58:53.485Z,4.80
2023-03-19T01:59:53.478Z,4.60
2023-03-19T02:00:53.502Z,5.30
2023-03-19T02:01:53.646Z,5.00
2023-03-19T02:02:53.486Z,5.40
2023-03-19T02:03:53.468Z,5.00
2023-03-19T02:04:53.544Z,5.20
2023-03-19T02:05:53.464Z,4.80
2023-03-19T02:06:53.455Z,4.70
2023-03-19T02:07:53.448Z,4.90
2023-03-19T02:08:53.444Z,5.40
2023-03-19T02:09:53.443Z,5.40
2023-03-19T02:10:53.438Z,5.30
2023-03-19T02:11:53.432Z,5.60
2023-03-19T02:12:53.458Z,4.70
2023-03-19T02:13:53.439Z,5.00
2023-03-19T02:14:53.420Z,5.90
2023-03-19T02:15:53.455Z,4.60
2023-03-19T02:16:53.434Z,5.10
2023-03-19T02:17:53.406Z,5.00
2023-03-19T02:18:53.400Z,5.10
2023-03-19T02:19:53.398Z,5.10
2023-03-19T02:20:53.393Z,5.20
2023-03-19T02:21:53.389Z,5.20
2023-03-19T02:22:53.424Z,4.90
2023-03-19T02:23:53.398Z,5.10
2023-03-19T02:24:53.376Z,5.30
2023-03-19T02:25:53.369Z,6.10
2023-03-19T02:26:53.366Z,5.90
2023-03-19T02:27:53.360Z,5.90
2023-03-19T02:28:53.366Z,4.70
2023-03-19T02:29:53.356Z,5.10
2023-03-19T02:30:53.347Z,5.90
2023-03-19T02:31:53.345Z,5.30
2023-03-19T02:32:53.420Z,5.30
2023-03-19T02:33:53.334Z,5.90
2023-03-19T02:34:53.332Z,5.30
2023-03-19T02:35:53.404Z,4.80
2023-03-19T02:36:53.331Z,5.00
2023-03-19T02:37:53.317Z,6.10
2023-03-19T02:38:53.313Z,4.80
2023-03-19T02:39:53.326Z,5.00
2023-03-19T02:40:53.309Z,5.30
2023-03-19T02:41:53.309Z,5.10
2023-03-19T02:43:53.292Z,5.30
2023-03-19T02:45:53.282Z,5.20
2023-03-19T02:46:53.389Z,5.50
2023-03-19T02:47:53.271Z,5.50
2023-03-19T02:48:53.295Z,6.30
2023-03-19T02:49:53.265Z,5.90
2023-03-19T02:50:54.042Z,5.70
2023-03-19T02:51:53.259Z,5.50
2023-03-19T02:52:53.455Z,5.30
2023-03-19T02:53:53.248Z,5.20
2023-03-19T02:54:53.243Z,5.00
2023-03-19T02:55:53.251Z,5.40
2023-03-19T02:56:53.240Z,5.50
2023-03-19T02:57:53.232Z,5.70
2023-03-19T02:58:53.230Z,5.20
2023-03-19T02:59:53.235Z,5.30
2023-03-19T03:00:53.272Z,5.40
2023-03-19T03:01:53.261Z,4.40
2023-03-19T03:02:53.221Z,4.80
2023-03-19T03:03:53.213Z,4.50
2023-03-19T03:04:53.226Z,4.40
2023-03-19T03:05:53.203Z,5.10
2023-03-19T03:06:53.207Z,4.40
2023-03-19T03:07:53.196Z,4.80
2023-03-19T03:08:53.202Z,5.20
2023-03-19T03:09:53.191Z,5.50
2023-03-19T03:10:53.191Z,5.10
2023-03-19T03:11:53.179Z,5.40
2023-03-19T03:12:53.182Z,5.30
2023-03-19T03:13:53.184Z,4.90
2023-03-19T03:14:53.172Z,4.90
2023-03-19T03:15:53.163Z,4.70
2023-03-19T03:16:53.164Z,4.80
2023-03-19T03:17:53.159Z,6.60
2023-03-19T03:19:53.149Z,5.40
2023-03-19T03:20:53.160Z,5.20
2023-03-19T03:21:53.146Z,5.40
2023-03-19T03:22:53.140Z,5.50
2023-03-19T03:23:53.133Z,5.30
2023-03-19T03:24:53.126Z,4.40
2023-03-19T03:25:53.130Z,5.50
2023-03-19T03:26:53.118Z,5.20
2023-03-19T03:27:53.132Z,5.40
2023-03-19T03:28:53.112Z,5.40
2023-03-19T03:29:53.111Z,5.00
2023-03-19T03:30:53.104Z,5.10
2023-03-19T03:31:53.170Z,5.40
2023-03-19T03:32:53.184Z,5.80
2023-03-19T03:33:53.104Z,5.10
2023-03-19T03:34:53.087Z,5.30
2023-03-19T03:35:53.127Z,5.30
2023-03-19T03:36:53.103Z,4.90
2023-03-19T03:37:53.477Z,4.70
2023-03-19T03:38:53.073Z,5.00
2023-03-19T03:39:53.073Z,4.60
2023-03-19T03:40:53.064Z,5.00
2023-03-19T03:41:53.061Z,5.10
2023-03-19T03:42:53.058Z,5.70
2023-03-19T03:43:53.060Z,4.80
2023-03-19T03:44:53.051Z,5.10
2023-03-19T03:45:53.168Z,5.60
2023-03-19T03:46:53.040Z,5.10
2023-03-19T03:47:53.043Z,6.00
2023-03-19T03:48:53.033Z,5.20
2023-03-19T03:49:53.035Z,5.10
2023-03-19T03:50:53.038Z,5.10
2023-03-19T03:51:53.039Z,5.10
2023-03-19T03:52:53.041Z,5.80
2023-03-19T03:53:53.018Z,5.30
2023-03-19T03:54:53.008Z,4.90
2023-03-19T03:55:53.008Z,5.10
2023-03-19T03:56:53.004Z,5.60
2023-03-19T03:57:52.998Z,5.10
2023-03-19T03:58:52.995Z,4.60
2023-03-19T03:59:52.998Z,4.90
2023-03-19T04:00:52.983Z,5.50
2023-03-19T04:01:53.051Z,4.70
2023-03-19T04:02:53.002Z,4.70
2023-03-19T04:03:52.997Z,4.70
2023-03-19T04:04:52.976Z,4.60
2023-03-19T04:05:52.995Z,5.10
2023-03-19T04:06:52.957Z,5.10
2023-03-19T04:07:52.970Z,4.40
2023-03-19T04:08:52.972Z,5.00
2023-03-19T04:09:52.948Z,4.80
2023-03-19T04:10:52.948Z,4.60
2023-03-19T04:11:52.957Z,5.50
2023-03-19T04:12:52.945Z,4.80
2023-03-19T04:13:52.942Z,5.60
2023-03-19T04:14:52.927Z,4.90
2023-03-19T04:15:52.922Z,5.60
2023-03-19T04:16:53.057Z,5.50
2023-03-19T04:17:52.916Z,5.30
2023-03-19T04:18:52.908Z,5.10
2023-03-19T04:19:52.911Z,5.30
2023-03-19T04:20:52.902Z,5.30
2023-03-19T04:21:52.912Z,5.30
2023-03-19T04:22:52.896Z,5.80
2023-03-19T04:23:52.892Z,5.20
2023-03-19T04:24:52.910Z,5.10
2023-03-19T04:25:52.918Z,5.70
2023-03-19T04:26:52.883Z,5.30
2023-03-19T04:27:52.894Z,5.30
2023-03-19T04:28:52.871Z,5.10
2023-03-19T04:29:52.873Z,5.90
2023-03-19T04:30:52.896Z,5.60
2023-03-19T04:31:52.860Z,5.50
2023-03-19T04:32:52.887Z,5.60
2023-03-19T04:33:52.852Z,6.70
2023-03-19T04:34:52.854Z,5.30
2023-03-19T04:35:52.902Z,5.00
2023-03-19T04:36:52.845Z,5.70
2023-03-19T04:37:52.839Z,5.70
2023-03-19T04:38:52.833Z,6.60
2023-03-19T04:39:52.829Z,6.20
2023-03-19T04:40:52.840Z,5.50
2023-03-19T04:41:52.821Z,5.40
2023-03-19T04:42:52.816Z,5.10
2023-03-19T04:43:52.813Z,5.30
2023-03-19T04:44:52.810Z,5.50
2023-03-19T04:45:52.875Z,6.00
2023-03-19T04:46:52.799Z,5.10
2023-03-19T04:47:52.807Z,6.70
2023-03-19T04:48:52.796Z,5.40
2023-03-19T04:49:52.797Z,5.30
2023-03-19T04:50:52.783Z,5.20
2023-03-19T04:51:52.779Z,5.30
2023-03-19T04:52:52.775Z,6.60
2023-03-19T04:53:52.775Z,5.10
2023-03-19T04:54:52.788Z,5.90
2023-03-19T04:55:52.770Z,4.70
2023-03-19T04:56:52.786Z,5.20
2023-03-19T04:57:52.771Z,5.20
2023-03-19T04:58:52.751Z,5.70
2023-03-19T04:59:52.752Z,5.00
2023-03-19T05:00:52.741Z,5.40
2023-03-19T05:01:52.749Z,5.50
2023-03-19T05:02:52.754Z,6.50
2023-03-19T05:03:52.773Z,5.60
2023-03-19T05:04:52.739Z,5.10
2023-03-19T05:05:52.728Z,6.20
2023-03-19T05:06:52.722Z,5.10
2023-03-19T05:07:52.721Z,5.00
2023-03-19T05:08:52.713Z,5.10
2023-03-19T05:09:52.711Z,5.10
2023-03-19T05:10:52.705Z,4.90
2023-03-19T05:11:52.709Z,6.40
2023-03-19T05:12:52.723Z,6.00
2023-03-19T05:13:52.701Z,5.60
2023-03-19T05:14:52.694Z,5.20
2023-03-19T05:15:52.735Z,5.50
2023-03-19T05:16:52.688Z,5.30
2023-03-19T05:17:52.679Z,5.20
2023-03-19T05:18:52.881Z,5.00
2023-03-19T05:19:52.670Z,5.70
2023-03-19T05:20:52.672Z,6.10
2023-03-19T05:21:52.666Z,5.60
2023-03-19T05:22:52.665Z,5.20
2023-03-19T05:23:52.700Z,5.10
2023-03-19T05:24:52.660Z,5.20
2023-03-19T05:25:52.649Z,5.20
2023-03-19T05:26:52.647Z,5.10
2023-03-19T05:27:52.639Z,5.30
2023-03-19T05:28:52.663Z,5.10
2023-03-19T05:29:52.640Z,5.40
2023-03-19T05:30:52.680Z,5.20
2023-03-19T05:31:52.630Z,6.00
2023-03-19T05:32:52.667Z,5.30
2023-03-19T05:33:52.625Z,5.90
2023-03-19T05:34:52.618Z,4.70
2023-03-19T05:35:52.640Z,5.70
2023-03-19T05:36:52.616Z,4.60
2023-03-19T05:37:52.605Z,4.50
2023-03-19T05:38:52.615Z,5.50
2023-03-19T05:39:52.596Z,4.90
2023-03-19T05:40:52.612Z,4.90
2023-03-19T05:42:52.841Z,6.60
2023-03-19T05:43:52.584Z,4.70
2023-03-19T05:44:52.595Z,5.00
2023-03-19T05:45:52.691Z,5.70
2023-03-19T05:46:52.644Z,8.30
2023-03-19T05:47:52.565Z,5.30
2023-03-19T05:48:52.562Z,5.90
2023-03-19T05:49:52.966Z,5.00
2023-03-19T05:50:52.562Z,5.90
2023-03-19T05:51:52.567Z,5.40
2023-03-19T05:53:52.542Z,5.80
2023-03-19T05:54:52.551Z,5.30
2023-03-19T05:56:52.540Z,7.00
2023-03-19T05:57:52.544Z,5.20
2023-03-19T05:58:52.534Z,4.40
2023-03-19T06:00:52.539Z,4.80
2023-03-19T06:01:52.603Z,5.70
2023-03-19T06:02:52.532Z,4.70
2023-03-19T06:03:52.525Z,6.30
2023-03-19T06:04:52.509Z,5.90
2023-03-19T06:05:52.520Z,6.00
2023-03-19T06:07:52.488Z,6.00
2023-03-19T06:08:52.483Z,5.20
2023-03-19T06:09:52.488Z,4.60
2023-03-19T06:10:52.474Z,5.50
2023-03-19T06:11:52.473Z,5.20
2023-03-19T06:12:52.483Z,4.10
2023-03-19T06:13:52.477Z,4.70
2023-03-19T06:15:52.497Z,4.40
2023-03-19T06:18:55.055Z,3.90
2023-03-19T06:19:55.031Z,4.20
2023-03-19T06:20:55.034Z,4.30
2023-03-19T06:21:55.024Z,3.70
2023-03-19T06:23:55.420Z,3.80
2023-03-19T06:25:55.013Z,4.30
2023-03-19T06:26:55.006Z,4.10
2023-03-19T06:27:55.004Z,4.20
2023-03-19T06:28:55.004Z,4.40
2023-03-19T06:29:54.993Z,3.80
2023-03-19T06:30:54.993Z,4.70
2023-03-19T06:31:57.878Z,4.60
2023-03-19T06:32:55.062Z,4.70
2023-03-19T06:33:54.992Z,4.70
2023-03-19T06:34:55.010Z,3.70
2023-03-19T06:35:54.993Z,3.70
2023-03-19T06:36:54.973Z,5.20
2023-03-19T06:37:54.971Z,3.30
2023-03-19T06:38:54.966Z,3.40
2023-03-19T06:39:54.968Z,3.50
2023-03-19T06:40:54.958Z,4.30
2023-03-19T06:42:54.950Z,4.40
2023-03-19T06:44:54.943Z,3.60
2023-03-19T06:45:54.976Z,3.30
2023-03-19T06:46:54.936Z,3.40
2023-03-19T06:47:54.932Z,4.30
2023-03-19T06:48:54.930Z,3.40
2023-03-19T06:49:54.937Z,3.70
2023-03-19T06:50:54.958Z,3.30
2023-03-19T06:51:54.918Z,3.90
2023-03-19T06:52:54.919Z,4.20
2023-03-19T06:53:54.937Z,4.00
2023-03-19T06:54:54.911Z,3.30
2023-03-19T06:55:54.907Z,3.50
2023-03-19T06:56:54.904Z,3.20
2023-03-19T06:57:54.897Z,3.60
2023-03-19T06:58:54.913Z,3.60
2023-03-19T06:59:54.899Z,4.30
2023-03-19T07:00:54.915Z,3.80
2023-03-19T07:01:54.883Z,3.70
2023-03-19T07:02:54.880Z,4.30
2023-03-19T07:03:54.903Z,3.40
2023-03-19T07:04:54.875Z,4.40
2023-03-19T07:05:54.872Z,4.00
2023-03-19T07:06:54.901Z,4.00
2023-03-19T07:07:54.867Z,3.50
2023-03-19T07:08:54.917Z,4.10
2023-03-19T07:09:54.861Z,5.10
2023-03-19T07:10:54.849Z,3.50
2023-03-19T07:11:54.852Z,4.20
2023-03-19T07:12:54.847Z,5.00
2023-03-19T07:13:54.838Z,4.90
2023-03-19T07:14:54.836Z,3.70
2023-03-19T07:15:54.828Z,3.50
2023-03-19T07:16:54.833Z,4.10
2023-03-19T07:17:54.820Z,3.90
2023-03-19T07:18:54.818Z,3.50
2023-03-19T07:19:54.813Z,3.80
2023-03-19T07:20:54.813Z,5.00
2023-03-19T07:21:54.810Z,4.10
2023-03-19T07:22:54.837Z,4.00
2023-03-19T07:23:54.806Z,3.80
2023-03-19T07:24:54.800Z,4.00
2023-03-19T07:25:54.789Z,4.20
2023-03-19T07:26:54.793Z,4.80
2023-03-19T07:27:56.079Z,4.10
2023-03-19T07:28:54.783Z,4.00
2023-03-19T07:29:54.787Z,4.30
2023-03-19T07:30:54.793Z,5.00
2023-03-19T07:31:54.824Z,4.20
2023-03-19T07:32:54.855Z,5.00
2023-03-19T07:33:54.779Z,4.70
2023-03-19T07:34:54.769Z,4.30
2023-03-19T07:35:54.793Z,4.20
2023-03-19T07:36:54.760Z,4.10
2023-03-19T07:37:54.786Z,4.10
2023-03-19T07:38:54.765Z,3.50
2023-03-19T07:39:54.749Z,4.20
2023-03-19T07:41:01.973Z,3.70
2023-03-19T07:41:54.738Z,3.80
2023-03-19T07:42:54.930Z,3.50
2023-03-19T07:43:54.724Z,3.60
2023-03-19T07:44:54.721Z,3.70
2023-03-19T07:45:54.794Z,3.40
2023-03-19T07:46:54.714Z,5.70
2023-03-19T07:47:54.728Z,3.20
2023-03-19T07:48:54.712Z,3.40
2023-03-19T07:49:54.717Z,3.40
2023-03-19T07:50:54.704Z,4.40
2023-03-19T07:51:54.698Z,3.90
2023-03-19T07:52:54.694Z,4.90
2023-03-19T07:53:54.687Z,4.10
2023-03-19T07:54:54.703Z,4.00
2023-03-19T07:55:54.681Z,3.30
2023-03-19T07:56:54.678Z,3.80
2023-03-19T07:57:54.673Z,3.20
2023-03-19T07:58:54.680Z,3.60
2023-03-19T07:59:54.694Z,4.40
2023-03-19T08:00:54.672Z,4.30
2023-03-19T08:01:54.703Z,3.70
2023-03-19T08:02:54.656Z,3.80
2023-03-19T08:03:54.653Z,4.10
2023-03-19T08:04:54.683Z,3.40
2023-03-19T08:05:54.644Z,3.80
2023-03-19T08:06:54.644Z,3.60
2023-03-19T08:07:54.638Z,3.70
2023-03-19T08:08:54.641Z,3.20
2023-03-19T08:09:54.635Z,3.30
2023-03-19T08:10:54.649Z,3.80
2023-03-19T08:11:54.627Z,3.50
2023-03-19T08:12:54.620Z,3.20
2023-03-19T08:13:54.619Z,3.30
2023-03-19T08:14:54.613Z,3.80
2023-03-19T08:15:54.608Z,3.40
2023-03-19T08:16:54.652Z,3.30
2023-03-19T08:17:54.603Z,3.30
2023-03-19T08:18:54.609Z,3.60
2023-03-19T08:19:54.599Z,3.70
2023-03-19T08:20:54.595Z,3.90
2023-03-19T08:21:54.587Z,3.40
2023-03-19T08:22:54.587Z,4.60
2023-03-19T08:23:54.581Z,3.20
2023-03-19T08:24:54.578Z,3.30
2023-03-19T08:25:54.580Z,3.40
2023-03-19T08:26:54.597Z,3.60
2023-03-19T08:27:54.571Z,4.30
2023-03-19T08:28:54.564Z,3.60
2023-03-19T08:29:54.585Z,4.30
2023-03-19T08:30:54.601Z,4.40
2023-03-19T08:31:54.557Z,3.90
2023-03-19T08:32:54.616Z,3.50
2023-03-19T08:33:54.548Z,4.00
2023-03-19T08:34:54.548Z,3.70
2023-03-19T08:35:54.696Z,3.70
2023-03-19T08:36:54.555Z,3.50
2023-03-19T08:37:54.562Z,4.00
2023-03-19T08:38:54.531Z,4.10
2023-03-19T08:39:54.521Z,4.20
2023-03-19T08:40:54.522Z,3.40
2023-03-19T08:41:54.518Z,3.80
2023-03-19T08:42:54.883Z,4.90
2023-03-19T08:43:54.509Z,3.80
2023-03-19T08:44:54.511Z,3.80
2023-03-19T08:45:54.601Z,3.90
2023-03-19T08:46:54.709Z,3.90
2023-03-19T08:47:54.497Z,4.30
2023-03-19T08:48:54.500Z,3.50
2023-03-19T08:49:54.488Z,3.90
2023-03-19T08:50:54.487Z,4.10
2023-03-19T08:51:54.483Z,4.00
2023-03-19T08:52:54.482Z,4.00
2023-03-19T08:53:54.474Z,4.00
2023-03-19T08:54:54.478Z,4.20
2023-03-19T08:55:54.471Z,5.00
2023-03-19T08:56:54.478Z,4.00
2023-03-19T08:57:54.471Z,4.40
2023-03-19T08:58:54.492Z,4.20
2023-03-19T08:59:54.457Z,4.60
2023-03-19T09:00:54.454Z,4.30
2023-03-19T09:01:54.552Z,4.10
2023-03-19T09:02:54.444Z,4.40
2023-03-19T09:03:54.443Z,4.20
2023-03-19T09:04:54.538Z,4.20
2023-03-19T09:05:54.434Z,4.20
2023-03-19T09:06:54.468Z,4.50
2023-03-19T09:07:54.437Z,4.00
2023-03-19T09:08:54.432Z,4.10
2023-03-19T09:09:54.441Z,4.10
2023-03-19T09:10:54.474Z,4.40
2023-03-19T09:11:54.421Z,4.00
2023-03-19T09:12:54.413Z,4.60
2023-03-19T09:13:54.409Z,4.10
2023-03-19T09:14:54.425Z,4.20
2023-03-19T09:15:54.452Z,4.20
2023-03-19T09:16:54.413Z,4.30
2023-03-19T09:17:54.400Z,4.30
2023-03-19T09:18:54.394Z,4.50
2023-03-19T09:19:54.391Z,4.20
2023-03-19T09:20:54.419Z,4.00
2023-03-19T09:21:54.384Z,4.20
2023-03-19T09:22:54.384Z,4.10
2023-03-19T09:23:54.378Z,4.70
2023-03-19T09:24:54.374Z,4.20
2023-03-19T09:25:54.367Z,4.10
2023-03-19T09:26:54.369Z,4.20
2023-03-19T09:27:54.366Z,4.30
2023-03-19T09:28:54.363Z,4.50
2023-03-19T09:29:54.360Z,3.90
2023-03-19T09:30:54.456Z,4.20
2023-03-19T09:31:54.352Z,4.70
2023-03-19T09:32:54.444Z,4.00
2023-03-19T09:33:54.352Z,4.30
2023-03-19T09:34:54.345Z,4.00
2023-03-19T09:35:54.376Z,4.10
2023-03-19T09:36:54.339Z,4.10
2023-03-19T09:37:54.336Z,4.50
2023-03-19T09:38:54.334Z,4.60
2023-03-19T09:39:54.329Z,4.30
2023-03-19T09:40:54.325Z,4.10
2023-03-19T09:41:54.321Z,3.90
2023-03-19T09:42:54.471Z,4.00
2023-03-19T09:43:54.325Z,4.20
2023-03-19T09:44:54.315Z,4.50
2023-03-19T09:45:54.308Z,4.90
2023-03-19T09:46:54.457Z,5.10
2023-03-19T09:47:54.301Z,4.90
2023-03-19T09:48:54.302Z,5.10
2023-03-19T09:49:54.294Z,4.60
2023-03-19T09:50:54.295Z,4.50
2023-03-19T09:51:54.298Z,4.50
2023-03-19T09:52:54.298Z,4.60
2023-03-19T09:53:54.302Z,4.40
2023-03-19T09:54:54.289Z,3.90
2023-03-19T09:55:54.278Z,3.90
2023-03-19T09:56:54.283Z,4.40
2023-03-19T09:57:54.271Z,4.30
2023-03-19T09:58:54.273Z,4.50
2023-03-19T09:59:54.279Z,4.10
2023-03-19T10:00:54.274Z,4.20
2023-03-19T10:01:54.327Z,3.90
2023-03-19T10:02:54.281Z,4.40
2023-03-19T10:03:54.323Z,4.50
2023-03-19T10:04:54.257Z,4.80
2023-03-19T10:05:54.253Z,4.60
2023-03-19T10:06:54.253Z,4.40
2023-03-19T10:07:54.251Z,4.60
2023-03-19T10:08:54.253Z,4.50
2023-03-19T10:09:54.240Z,4.70
2023-03-19T10:10:54.236Z,5.20
2023-03-19T10:11:54.240Z,5.20
2023-03-19T10:12:54.234Z,4.80
2023-03-19T10:13:54.222Z,5.00
2023-03-19T10:14:54.221Z,5.10
2023-03-19T10:15:54.253Z,5.30
2023-03-19T10:16:54.230Z,5.40
2023-03-19T10:17:54.214Z,5.20
2023-03-19T10:18:54.714Z,5.20
2023-03-19T10:19:54.207Z,5.20
2023-03-19T10:20:54.206Z,5.20
2023-03-19T10:21:54.200Z,5.20
2023-03-19T10:22:54.198Z,4.70
2023-03-19T10:23:54.197Z,4.70
2023-03-19T10:24:54.188Z,4.70
2023-03-19T10:25:54.189Z,5.30
2023-03-19T10:26:54.189Z,4.70
2023-03-19T10:27:54.184Z,4.60
2023-03-19T10:28:54.181Z,4.50
2023-03-19T10:29:54.179Z,4.30
2023-03-19T10:30:55.527Z,4.60
2023-03-19T10:31:54.251Z,5.30
2023-03-19T10:32:54.287Z,5.30
2023-03-19T10:33:54.167Z,4.90
2023-03-19T10:34:54.195Z,5.10
2023-03-19T10:35:54.191Z,5.00
2023-03-19T10:36:54.159Z,5.10
2023-03-19T10:37:54.158Z,5.10
2023-03-19T10:38:54.166Z,4.70
2023-03-19T10:39:54.150Z,5.20
2023-03-19T10:40:54.150Z,4.90
2023-03-19T10:41:54.157Z,4.90
2023-03-19T10:42:54.150Z,4.90
2023-03-19T10:43:54.145Z,5.10
2023-03-19T10:44:54.143Z,5.60
2023-03-19T10:45:54.282Z,5.90
2023-03-19T10:46:54.136Z,5.30
2023-03-19T10:47:54.128Z,6.00
2023-03-19T10:48:54.123Z,5.80
2023-03-19T10:49:54.124Z,5.50
2023-03-19T10:50:54.145Z,5.80
2023-03-19T10:51:54.118Z,5.50
2023-03-19T10:52:54.128Z,5.50
2023-03-19T10:53:54.128Z,5.60
2023-03-19T10:54:55.285Z,6.10
2023-03-19T10:55:54.109Z,5.50
2023-03-19T10:56:54.102Z,6.00
2023-03-19T10:57:54.129Z,5.10
2023-03-19T10:58:54.097Z,5.50
2023-03-19T10:59:54.112Z,5.60
2023-03-19T11:00:54.142Z,5.20
2023-03-19T11:01:54.096Z,5.50
2023-03-19T11:02:54.095Z,5.70
2023-03-19T11:03:54.118Z,5.60
2023-03-19T11:04:54.077Z,6.00
2023-03-19T11:05:54.106Z,6.70
2023-03-19T11:06:54.099Z,6.30
2023-03-19T11:07:54.082Z,6.10
2023-03-19T11:08:54.065Z,6.30
2023-03-19T11:09:54.412Z,6.40
2023-03-19T11:10:54.062Z,6.70
2023-03-19T11:11:54.061Z,6.90
2023-03-19T11:12:54.057Z,7.20
2023-03-19T11:13:54.048Z,6.60
2023-03-19T11:14:54.046Z,7.00
2023-03-19T11:15:54.045Z,7.00
2023-03-19T11:16:54.095Z,6.80
2023-03-19T11:17:54.038Z,7.10
2023-03-19T11:18:54.036Z,7.10
2023-03-19T11:19:54.037Z,7.40
2023-03-19T11:20:54.028Z,7.40
2023-03-19T11:21:54.025Z,7.50
2023-03-19T11:22:54.045Z,7.30
2023-03-19T11:23:54.021Z,7.40
2023-03-19T11:24:54.017Z,7.30
2023-03-19T11:25:54.015Z,7.20
2023-03-19T11:26:54.013Z,7.30
2023-03-19T11:27:54.008Z,7.30
2023-03-19T11:28:54.001Z,7.20
2023-03-19T11:29:54.015Z,6.90
2023-03-19T11:30:54.005Z,7.00
2023-03-19T11:31:54.044Z,7.20
2023-03-19T11:32:54.095Z,6.70
2023-03-19T11:33:53.996Z,7.20
2023-03-19T11:34:54.068Z,7.00
2023-03-19T11:35:54.088Z,6.10
2023-03-19T11:36:53.980Z,6.30
2023-03-19T11:37:53.975Z,6.30
2023-03-19T11:38:53.998Z,6.10
2023-03-19T11:39:53.972Z,6.00
2023-03-19T11:40:53.968Z,5.90
2023-03-19T11:41:54.049Z,6.00
2023-03-19T11:42:53.982Z,6.50
2023-03-19T11:43:53.958Z,6.40
2023-03-19T11:44:53.958Z,6.40
2023-03-19T11:45:53.963Z,6.60
2023-03-19T11:46:53.952Z,6.80
2023-03-19T11:47:53.953Z,6.30
2023-03-19T11:48:53.948Z,6.70
2023-03-19T11:49:53.944Z,5.80
2023-03-19T11:50:53.939Z,6.20
2023-03-19T11:51:53.939Z,6.30
2023-03-19T11:52:53.933Z,6.00
2023-03-19T11:54:53.951Z,5.60
2023-03-19T11:55:53.938Z,5.60
2023-03-19T11:56:53.923Z,6.10
2023-03-19T11:57:53.919Z,6.00
2023-03-19T11:58:53.924Z,5.60
2023-03-19T11:59:53.916Z,5.80
2023-03-19T12:00:53.922Z,6.40
2023-03-19T12:01:53.909Z,6.50
2023-03-19T12:02:53.908Z,7.20
2023-03-19T12:03:53.938Z,6.70
2023-03-19T12:04:53.901Z,6.80
2023-03-19T12:05:53.896Z,7.20
2023-03-19T12:06:53.980Z,6.70
2023-03-19T12:07:53.892Z,6.50
2023-03-19T12:08:53.891Z,6.70
2023-03-19T12:09:53.891Z,7.90
2023-03-19T12:10:53.918Z,8.20
2023-03-19T12:11:53.889Z,8.10
2023-03-19T12:12:53.878Z,8.30
2023-03-19T12:13:53.878Z,8.20
2023-03-19T12:14:53.873Z,8.60
2023-03-19T12:15:53.897Z,8.50
2023-03-19T12:16:53.941Z,8.10
2023-03-19T12:17:53.863Z,8.70
2023-03-19T12:18:53.869Z,8.90
2023-03-19T12:19:53.860Z,9.50
2023-03-19T12:20:53.855Z,9.50
2023-03-19T12:21:53.856Z,9.70
2023-03-19T12:22:53.865Z,9.40
2023-03-19T12:23:53.852Z,9.40
2023-03-19T12:24:53.848Z,9.80
2023-03-19T12:25:53.839Z,9.20
2023-03-19T12:26:53.957Z,9.20
2023-03-19T12:27:53.834Z,9.90
2023-03-19T12:28:53.836Z,9.30
2023-03-19T12:29:53.844Z,10.20
2023-03-19T12:30:53.877Z,9.60
2023-03-19T12:31:53.819Z,10.00
2023-03-19T12:32:53.972Z,8.90
2023-03-19T12:33:53.812Z,8.60
2023-03-19T12:34:53.817Z,9.20
2023-03-19T12:35:53.826Z,9.60
2023-03-19T12:36:53.946Z,9.40
2023-03-19T12:37:53.799Z,9.20
2023-03-19T12:38:53.804Z,8.90
2023-03-19T12:39:53.794Z,8.60
2023-03-19T12:40:53.799Z,8.70
2023-03-19T12:41:53.791Z,9.00
2023-03-19T12:42:53.809Z,9.00
2023-03-19T12:43:53.780Z,9.30
2023-03-19T12:44:53.781Z,9.60
2023-03-19T12:45:53.783Z,10.30
2023-03-19T12:46:53.862Z,10.40
2023-03-19T12:47:53.776Z,11.40
2023-03-19T12:48:53.778Z,10.10
2023-03-19T12:49:53.771Z,9.50
2023-03-19T12:50:53.776Z,9.40
2023-03-19T12:51:53.782Z,9.80
2023-03-19T12:52:53.757Z,9.40
2023-03-19T12:53:53.766Z,9.90
2023-03-19T12:54:53.746Z,9.20
2023-03-19T12:55:53.754Z,10.30
2023-03-19T12:56:53.752Z,10.30
2023-03-19T12:57:53.744Z,10.40
2023-03-19T12:58:53.822Z,10.40
2023-03-19T12:59:53.740Z,10.80
2023-03-19T13:00:53.738Z,10.70
2023-03-19T13:01:53.840Z,10.50
2023-03-19T13:02:53.816Z,10.80
2023-03-19T13:03:53.727Z,10.20
2023-03-19T13:04:53.797Z,10.70
2023-03-19T13:05:53.718Z,10.40
2023-03-19T13:06:53.722Z,10.10
2023-03-19T13:07:53.722Z,10.10
2023-03-19T13:08:53.715Z,10.70
2023-03-19T13:09:53.707Z,10.10
2023-03-19T13:10:53.708Z,10.30
2023-03-19T13:13:53.699Z,9.00
2023-03-19T13:14:53.799Z,9.20
2023-03-19T13:15:54.507Z,8.40
2023-03-19T13:16:53.688Z,9.10
2023-03-19T13:17:53.683Z,8.80
2023-03-19T13:19:53.679Z,7.80
2023-03-19T13:20:53.681Z,7.70
2023-03-19T13:21:53.673Z,7.20
2023-03-19T13:22:53.674Z,7.00
2023-03-19T13:23:53.670Z,6.70
2023-03-19T13:24:53.667Z,6.40
2023-03-19T13:25:53.667Z,7.70
2023-03-19T13:27:53.656Z,7.40
2023-03-19T13:28:53.662Z,7.30
2023-03-19T13:29:53.655Z,7.50
2023-03-19T13:30:53.672Z,7.20
2023-03-19T13:31:55.058Z,7.20
2023-03-19T13:33:53.644Z,7.10
2023-03-19T13:34:53.636Z,7.30
2023-03-19T13:35:53.681Z,7.40
2023-03-19T13:36:53.634Z,7.50
2023-03-19T13:37:53.628Z,7.20
2023-03-19T13:38:53.629Z,7.00